createdAt,value
2018-04-30T00:00:12.463Z,17.50
2018-04-30T00:03:15.731Z,17.54
2018-04-30T00:06:18.989Z,17.51
2018-04-30T00:09:22.298Z,17.49
2018-04-30T00:12:25.563Z,17.47
2018-04-30T00:15:28.830Z,17.39
2018-04-30T00:18:32.860Z,17.38
2018-04-30T00:21:36.879Z,17.38
2018-04-30T00:24:40.153Z,17.43
2018-04-30T00:27:43.482Z,17.45
2018-04-30T00:30:46.750Z,17.49
2018-04-30T00:33:50.023Z,17.47
2018-04-30T00:36:53.277Z,17.55
2018-04-30T00:39:56.550Z,17.45
2018-04-30T00:43:00.702Z,17.45
2018-04-30T00:46:03.977Z,17.32
2018-04-30T00:49:07.262Z,17.31
2018-04-30T00:52:11.297Z,17.29
2018-04-30T00:55:15.342Z,17.24
2018-04-30T00:58:18.597Z,17.25
2018-04-30T01:01:22.663Z,17.21
2018-04-30T01:04:26.061Z,17.20
2018-04-30T01:07:29.344Z,17.13
2018-04-30T01:10:32.598Z,17.09
2018-04-30T01:13:36.631Z,17.05
2018-04-30T01:16:40.647Z,17.00
2018-04-30T01:19:43.902Z,16.96
2018-04-30T01:22:47.162Z,17.01
2018-04-30T01:25:50.436Z,16.99
2018-04-30T01:28:54.452Z,16.98
2018-04-30T01:31:57.745Z,17.02
2018-04-30T01:35:01.785Z,17.07
2018-04-30T01:38:05.142Z,17.10
2018-04-30T01:41:09.174Z,17.09
2018-04-30T01:44:12.433Z,17.07
2018-04-30T01:47:15.750Z,17.02
2018-04-30T01:50:19.043Z,16.95
2018-04-30T01:53:22.323Z,16.86
2018-04-30T01:56:25.574Z,16.81
2018-04-30T01:59:28.834Z,16.67
2018-04-30T02:02:32.870Z,16.54
2018-04-30T02:05:36.885Z,16.46
2018-04-30T02:08:40.912Z,16.40
2018-04-30T02:11:44.171Z,16.37
2018-04-30T02:14:48.958Z,16.30
2018-04-30T02:17:52.230Z,16.23
2018-04-30T02:20:56.245Z,16.20
2018-04-30T02:24:00.264Z,16.09
2018-04-30T02:27:03.560Z,16.01
2018-04-30T02:30:07.979Z,15.90
2018-04-30T02:33:11.995Z,15.81
2018-04-30T02:36:16.112Z,15.72
2018-04-30T02:39:20.142Z,15.66
2018-04-30T02:42:23.403Z,15.60
2018-04-30T02:45:26.675Z,15.59
2018-04-30T02:48:30.066Z,15.59
2018-04-30T02:51:33.523Z,15.54
2018-04-30T02:54:36.810Z,15.58
2018-04-30T02:57:41.454Z,15.57
2018-04-30T03:00:45.469Z,15.58
2018-04-30T03:03:48.737Z,15.56
2018-04-30T03:06:51.981Z,15.50
2018-04-30T03:09:55.277Z,15.48
2018-04-30T03:12:58.564Z,15.46
2018-04-30T03:16:01.825Z,15.44
2018-04-30T03:19:05.162Z,15.53
2018-04-30T03:22:08.343Z,15.58
2018-04-30T03:25:12.362Z,15.57
2018-04-30T03:28:16.384Z,15.47
2018-04-30T03:31:20.401Z,15.42
2018-04-30T03:34:23.713Z,15.43
2018-04-30T03:37:27.045Z,15.77
2018-04-30T03:40:30.328Z,16.10
2018-04-30T03:43:33.682Z,16.23
2018-04-30T03:46:37.723Z,16.31
2018-04-30T03:49:41.028Z,16.32
2018-04-30T03:52:45.018Z,16.26
2018-04-30T03:55:48.290Z,16.12
2018-04-30T03:58:52.462Z,16.08
2018-04-30T04:02:13.649Z,15.94
2018-04-30T04:05:35.363Z,15.89
2018-04-30T04:08:39.380Z,15.80
2018-04-30T04:11:43.511Z,15.59
2018-04-30T04:14:47.566Z,15.48
2018-04-30T04:17:50.827Z,15.34
2018-04-30T04:20:54.857Z,15.33
2018-04-30T04:23:58.172Z,15.24
2018-04-30T04:27:01.470Z,15.07
2018-04-30T04:30:05.616Z,14.84
2018-04-30T04:33:11.415Z,14.67
2018-04-30T04:36:14.904Z,14.43
2018-04-30T04:39:18.349Z,14.33
2018-04-30T04:42:21.597Z,14.17
2018-04-30T04:45:24.845Z,14.07
2018-04-30T04:48:28.145Z,13.93
2018-04-30T04:51:32.157Z,13.80
2018-04-30T04:54:36.180Z,13.77
2018-04-30T04:57:39.496Z,13.58
2018-04-30T05:00:42.749Z,13.43
2018-04-30T05:03:46.837Z,13.21
2018-04-30T05:06:50.089Z,13.07
2018-04-30T05:09:56.745Z,13.00
2018-04-30T05:16:37.623Z,12.81
2018-04-30T05:19:40.882Z,12.66
2018-04-30T05:22:44.172Z,12.71
2018-04-30T05:25:47.426Z,12.26
2018-04-30T05:28:50.718Z,12.19
2018-04-30T05:31:53.978Z,11.94
2018-04-30T05:34:57.998Z,11.87
2018-04-30T05:38:02.031Z,11.78
2018-04-30T05:41:05.282Z,11.60
2018-04-30T05:44:08.546Z,11.78
2018-04-30T05:47:11.809Z,11.79
2018-04-30T05:50:15.849Z,11.77
2018-04-30T05:53:19.122Z,11.57
2018-04-30T05:56:23.175Z,11.65
2018-04-30T05:59:26.431Z,11.66
2018-04-30T06:02:29.685Z,11.67
2018-04-30T06:05:33.053Z,11.52
2018-04-30T06:08:36.630Z,11.36
2018-04-30T06:11:39.931Z,11.33
2018-04-30T06:14:43.499Z,11.50
2018-04-30T06:17:46.756Z,11.51
2018-04-30T06:20:50.005Z,11.56
2018-04-30T06:23:54.064Z,11.40
2018-04-30T06:26:57.348Z,11.42
2018-04-30T06:30:00.706Z,11.27
2018-04-30T06:33:04.330Z,11.25
2018-04-30T06:36:08.924Z,11.24
2018-04-30T06:39:13.088Z,11.09
2018-04-30T06:42:16.580Z,11.17
2018-04-30T06:45:20.605Z,11.18
2018-04-30T06:48:23.924Z,11.24
2018-04-30T06:51:27.226Z,11.25
2018-04-30T06:54:30.558Z,11.13
2018-04-30T06:57:33.817Z,10.91
2018-04-30T07:00:37.224Z,10.97
2018-04-30T07:03:40.493Z,10.82
2018-04-30T07:06:44.588Z,10.99
2018-04-30T07:09:47.853Z,11.13
2018-04-30T07:12:52.108Z,11.47
2018-04-30T07:15:55.387Z,11.29
2018-04-30T07:18:58.650Z,11.52
2018-04-30T07:22:01.965Z,11.74
2018-04-30T07:25:05.218Z,12.08
2018-04-30T07:28:08.647Z,12.68
2018-04-30T07:31:12.029Z,12.94
2018-04-30T07:34:16.059Z,13.33
2018-04-30T07:37:20.107Z,13.47
2018-04-30T07:40:24.142Z,12.47
2018-04-30T07:43:28.219Z,12.87
2018-04-30T07:46:31.479Z,13.00
2018-04-30T07:49:34.840Z,12.70
2018-04-30T07:52:38.045Z,13.27
2018-04-30T07:55:42.064Z,12.99
2018-04-30T07:58:46.092Z,13.20
2018-04-30T08:01:49.462Z,13.38
2018-04-30T08:04:52.722Z,13.44
2018-04-30T08:07:55.978Z,13.50
2018-04-30T08:10:59.990Z,13.84
2018-04-30T08:14:04.022Z,14.20
2018-04-30T08:17:08.048Z,14.40
2018-04-30T08:20:11.348Z,14.57
2018-04-30T08:23:14.628Z,15.27
2018-04-30T08:26:18.667Z,13.72
2018-04-30T08:29:21.925Z,14.65
2018-04-30T08:32:25.513Z,13.31
2018-04-30T08:35:28.766Z,14.50
2018-04-30T08:38:44.421Z,15.49
2018-04-30T08:41:48.744Z,15.70
2018-04-30T08:44:52.026Z,16.06
2018-04-30T08:47:55.295Z,16.24
2018-04-30T08:50:58.587Z,15.61
2018-04-30T08:54:01.837Z,14.76
2018-04-30T08:57:05.108Z,15.61
2018-04-30T09:00:08.581Z,15.58
2018-04-30T09:03:11.878Z,15.18
2018-04-30T09:06:16.093Z,15.51
2018-04-30T09:09:19.387Z,15.85
2018-04-30T09:12:22.700Z,16.12
2018-04-30T09:15:26.886Z,14.47
2018-04-30T09:18:30.933Z,15.20
2018-04-30T09:21:34.214Z,16.06
2018-04-30T09:24:38.242Z,15.52
2018-04-30T09:27:42.260Z,15.01
2018-04-30T09:30:45.560Z,15.31
2018-04-30T09:33:48.866Z,15.34
2018-04-30T09:36:52.119Z,16.39
2018-04-30T09:39:55.397Z,17.19
2018-04-30T09:42:58.650Z,17.71
2018-04-30T09:46:01.925Z,17.28
2018-04-30T09:49:06.211Z,16.85
2018-04-30T09:52:09.489Z,16.89
2018-04-30T09:55:12.750Z,17.30
2018-04-30T09:58:16.774Z,16.94
2018-04-30T10:01:20.790Z,17.25
2018-04-30T10:04:25.577Z,18.01
2018-04-30T10:07:28.822Z,18.20
2018-04-30T10:10:32.844Z,17.29
2018-04-30T10:13:36.869Z,16.78
2018-04-30T10:16:41.192Z,16.77
2018-04-30T10:19:44.470Z,17.10
2018-04-30T10:22:48.533Z,17.61
2018-04-30T10:25:51.801Z,17.85
2018-04-30T10:28:55.286Z,18.20
2018-04-30T10:31:58.582Z,17.44
2018-04-30T10:35:02.605Z,16.75
2018-04-30T10:38:07.340Z,16.10
2018-04-30T10:41:10.526Z,17.12
2018-04-30T10:44:14.585Z,17.61
2018-04-30T10:47:17.834Z,17.97
2018-04-30T10:50:21.089Z,18.98
2018-04-30T10:53:24.369Z,19.49
2018-04-30T10:56:27.625Z,19.87
2018-04-30T10:59:30.923Z,19.36
2018-04-30T11:02:34.203Z,18.27
2018-04-30T11:05:37.462Z,18.03
2018-04-30T11:08:40.762Z,18.43
2018-04-30T11:11:44.293Z,18.19
2018-04-30T11:14:47.563Z,17.54
2018-04-30T11:17:50.828Z,17.26
2018-04-30T11:20:54.861Z,17.00
2018-04-30T11:23:58.175Z,16.85
2018-04-30T11:27:01.465Z,16.61
2018-04-30T11:30:04.741Z,16.56
2018-04-30T11:33:08.820Z,16.46
2018-04-30T11:36:12.075Z,17.26
2018-04-30T11:39:15.350Z,17.71
2018-04-30T11:42:19.388Z,18.18
2018-04-30T11:45:22.677Z,18.59
2018-04-30T11:48:25.972Z,18.36
2018-04-30T11:51:30.019Z,18.93
2018-04-30T11:54:33.308Z,18.83
2018-04-30T11:57:36.582Z,18.96
2018-04-30T12:00:39.929Z,18.57
2018-04-30T12:03:44.047Z,17.92
2018-04-30T12:06:48.061Z,17.74
2018-04-30T12:09:52.150Z,17.75
2018-04-30T12:12:55.474Z,17.05
2018-04-30T12:15:59.638Z,17.69
2018-04-30T12:19:02.909Z,17.47
2018-04-30T12:22:07.017Z,17.85
2018-04-30T12:25:10.222Z,18.02
2018-04-30T12:28:13.533Z,18.19
2018-04-30T12:31:16.933Z,18.68
2018-04-30T12:34:20.960Z,19.06
2018-04-30T12:37:24.364Z,19.24
2018-04-30T12:40:27.640Z,18.40
2018-04-30T12:43:32.178Z,18.34
2018-04-30T12:46:35.469Z,17.85
2018-04-30T12:49:38.752Z,17.57
2018-04-30T12:52:42.106Z,16.94
2018-04-30T12:55:45.505Z,17.00
2018-04-30T12:58:49.395Z,17.45
2018-04-30T13:01:52.700Z,18.10
2018-04-30T13:04:56.726Z,18.16
2018-04-30T13:08:00.023Z,18.47
2018-04-30T13:11:05.998Z,18.01
2018-04-30T13:14:12.984Z,18.80
2018-04-30T13:17:16.364Z,18.46
2018-04-30T13:20:20.620Z,18.00
2018-04-30T13:23:23.942Z,18.09
2018-04-30T13:26:27.475Z,17.83
2018-04-30T13:29:30.944Z,17.44
2018-04-30T13:32:34.199Z,17.65
2018-04-30T13:35:37.496Z,17.48
2018-04-30T13:38:40.740Z,17.61
2018-04-30T13:41:44.004Z,17.74
2018-04-30T13:44:48.077Z,17.28
2018-04-30T13:47:51.312Z,17.53
2018-04-30T13:50:55.337Z,18.26
2018-04-30T13:53:59.370Z,18.47
2018-04-30T13:57:02.663Z,19.00
2018-04-30T14:00:06.707Z,19.02
2018-04-30T14:03:09.985Z,19.24
2018-04-30T14:06:13.277Z,19.32
2018-04-30T14:09:17.306Z,18.99
2018-04-30T14:12:20.556Z,18.77
2018-04-30T14:15:25.142Z,18.90
2018-04-30T14:18:28.397Z,18.95
2018-04-30T14:21:32.451Z,18.89
2018-04-30T14:24:35.706Z,18.34
2018-04-30T14:27:39.740Z,18.43
2018-04-30T14:30:43.004Z,18.42
2018-04-30T14:33:46.273Z,18.35
2018-04-30T14:36:49.578Z,18.34
2018-04-30T14:39:52.795Z,18.31
2018-04-30T14:42:56.042Z,18.25
2018-04-30T14:45:59.297Z,18.79
2018-04-30T14:49:03.330Z,18.68
2018-04-30T14:52:06.620Z,18.34
2018-04-30T14:55:10.641Z,18.83
2018-04-30T14:58:13.951Z,18.64
2018-04-30T15:01:17.234Z,18.25
2018-04-30T15:04:21.405Z,18.27
2018-04-30T15:07:24.756Z,18.09
2018-04-30T15:10:28.782Z,17.76
2018-04-30T15:13:32.144Z,17.96
2018-04-30T15:16:35.355Z,18.00
2018-04-30T15:19:39.571Z,17.89
2018-04-30T15:22:42.835Z,18.10
2018-04-30T15:25:47.021Z,18.48
2018-04-30T15:28:50.406Z,18.05
2018-04-30T15:31:54.565Z,18.45
2018-04-30T15:35:19.180Z,18.26
2018-04-30T15:38:22.921Z,18.06
2018-04-30T15:41:27.264Z,18.37
2018-04-30T15:44:30.597Z,18.16
2018-04-30T15:47:33.918Z,18.16
2018-04-30T15:50:37.173Z,18.18
2018-04-30T15:53:40.461Z,18.33
2018-04-30T15:56:45.226Z,18.47
2018-04-30T15:59:48.509Z,18.49
2018-04-30T16:02:51.872Z,18.75
2018-04-30T16:05:55.221Z,18.55
2018-04-30T16:08:58.510Z,17.92
2018-04-30T16:12:02.172Z,17.84
2018-04-30T16:15:05.595Z,17.75
2018-04-30T16:18:08.848Z,17.69
2018-04-30T16:21:12.109Z,17.61
2018-04-30T16:24:16.141Z,17.68
2018-04-30T16:27:19.541Z,17.66
2018-04-30T16:30:23.636Z,17.71
2018-04-30T16:33:27.072Z,17.82
2018-04-30T16:36:30.456Z,17.70
2018-04-30T16:39:35.409Z,17.97
2018-04-30T16:42:38.779Z,18.04
2018-04-30T16:45:42.491Z,18.12
2018-04-30T16:48:46.525Z,18.36
2018-04-30T16:51:49.801Z,18.44
2018-04-30T16:54:53.847Z,19.24
2018-04-30T16:57:57.189Z,21.59
2018-04-30T17:01:01.016Z,23.46
2018-04-30T17:04:04.278Z,23.12
2018-04-30T17:07:07.534Z,20.62
2018-04-30T17:10:11.848Z,19.61
2018-04-30T17:13:15.412Z,18.66
2018-04-30T17:16:18.728Z,18.02
2018-04-30T17:19:21.985Z,17.54
2018-04-30T17:22:25.255Z,17.39
2018-04-30T17:25:29.309Z,17.18
2018-04-30T17:28:32.567Z,16.99
2018-04-30T17:31:36.590Z,16.84
2018-04-30T17:34:39.917Z,16.63
2018-04-30T17:37:43.205Z,16.48
2018-04-30T17:40:46.468Z,16.47
2018-04-30T17:43:50.491Z,16.32
2018-04-30T17:46:54.627Z,16.26
2018-04-30T17:49:57.830Z,16.17
2018-04-30T17:53:02.943Z,16.09
2018-04-30T17:56:07.069Z,15.97
2018-04-30T17:59:11.085Z,15.82
2018-04-30T18:02:14.369Z,15.71
2018-04-30T18:05:18.418Z,15.67
2018-04-30T18:08:21.694Z,15.63
2018-04-30T18:11:25.218Z,15.51
2018-04-30T18:14:29.289Z,15.40
2018-04-30T18:17:33.333Z,15.30
2018-04-30T18:20:36.618Z,15.30
2018-04-30T18:23:40.632Z,15.35
2018-04-30T18:26:43.977Z,15.18
2018-04-30T18:29:47.960Z,15.18
2018-04-30T18:32:52.077Z,15.24
2018-04-30T18:35:55.397Z,15.25
2018-04-30T18:38:58.677Z,15.34
2018-04-30T18:42:02.704Z,15.36
2018-04-30T18:45:06.002Z,15.28
2018-04-30T18:48:09.292Z,15.33
2018-04-30T18:51:12.557Z,15.28
2018-04-30T18:54:15.819Z,15.19
2018-04-30T18:57:19.075Z,15.05
2018-04-30T19:00:23.147Z,14.88
2018-04-30T19:03:29.452Z,14.32
2018-04-30T19:06:32.700Z,13.94
2018-04-30T19:09:35.993Z,13.74
2018-04-30T19:12:39.504Z,13.60
2018-04-30T19:15:45.870Z,13.23
2018-04-30T19:18:49.185Z,12.94
2018-04-30T19:21:53.757Z,12.62
2018-04-30T19:24:58.012Z,12.39
2018-04-30T19:28:02.406Z,12.43
2018-04-30T19:31:05.813Z,12.39
2018-04-30T19:34:09.177Z,12.27
2018-04-30T19:37:13.219Z,12.38
2018-04-30T19:40:16.552Z,12.31
2018-04-30T19:43:20.333Z,12.32
2018-04-30T19:46:24.575Z,12.34
2018-04-30T19:49:27.995Z,12.26
2018-04-30T19:52:31.375Z,12.38
2018-04-30T19:55:35.041Z,12.64
2018-04-30T19:58:39.946Z,12.78
2018-04-30T20:01:43.918Z,12.73
2018-04-30T20:04:48.033Z,12.69
2018-04-30T20:07:52.377Z,12.21
2018-04-30T20:10:55.667Z,12.09
2018-04-30T20:13:59.337Z,12.26
2018-04-30T20:17:02.587Z,12.16
2018-04-30T20:20:06.053Z,12.25
2018-04-30T20:23:09.383Z,12.21
2018-04-30T20:26:13.153Z,12.13
2018-04-30T20:29:17.391Z,12.34
2018-04-30T20:32:20.611Z,12.28
2018-04-30T20:35:25.044Z,12.33
2018-04-30T20:38:28.424Z,12.10
2018-04-30T20:41:32.552Z,12.26
2018-04-30T20:44:35.858Z,12.30
2018-04-30T20:47:39.120Z,12.33
2018-04-30T20:50:42.380Z,12.31
2018-04-30T20:53:46.327Z,12.23
2018-04-30T20:56:50.404Z,12.16
2018-04-30T20:59:54.102Z,12.23
2018-04-30T21:02:57.654Z,12.23
2018-04-30T21:06:00.904Z,12.04
2018-04-30T21:09:15.059Z,11.77
2018-04-30T21:12:18.362Z,11.74
2018-04-30T21:15:22.174Z,11.98
2018-04-30T21:18:25.685Z,12.03
2018-04-30T21:21:29.685Z,12.12
2018-04-30T21:24:33.366Z,12.03
2018-04-30T21:27:38.146Z,12.12
2018-04-30T21:30:43.339Z,12.09
2018-04-30T21:33:46.814Z,12.15
2018-04-30T21:36:50.093Z,12.14
2018-04-30T21:39:54.168Z,12.26
2018-04-30T21:42:58.497Z,12.24
2018-04-30T21:46:02.041Z,12.21
2018-04-30T21:49:07.856Z,12.08
2018-04-30T21:52:11.054Z,12.16
2018-04-30T21:55:14.336Z,12.18
2018-04-30T21:58:18.398Z,12.13
2018-04-30T22:01:21.732Z,12.16
2018-04-30T22:04:25.005Z,12.22
2018-04-30T22:07:28.256Z,12.19
2018-04-30T22:10:31.529Z,12.17
2018-04-30T22:13:35.564Z,12.09
2018-04-30T22:16:38.907Z,12.01
2018-04-30T22:19:42.169Z,11.90
2018-04-30T22:22:45.446Z,11.90
2018-04-30T22:25:50.223Z,11.73
2018-04-30T22:28:53.488Z,11.69
2018-04-30T22:31:56.733Z,11.60
2018-04-30T22:35:00.082Z,11.66
2018-04-30T22:38:04.115Z,11.72
2018-04-30T22:41:07.423Z,11.74
2018-04-30T22:44:10.698Z,11.82
2018-04-30T22:47:14.048Z,11.89
2018-04-30T22:50:17.299Z,11.91
2018-04-30T22:53:20.593Z,11.88
2018-04-30T22:56:23.841Z,11.77
2018-04-30T22:59:27.121Z,11.85
2018-04-30T23:02:30.439Z,11.86
2018-04-30T23:05:34.600Z,11.92
2018-04-30T23:08:37.894Z,11.79
2018-04-30T23:11:41.155Z,11.68
2018-04-30T23:14:44.444Z,11.70
2018-04-30T23:17:47.729Z,11.71
2018-04-30T23:20:50.981Z,11.67
2018-04-30T23:23:54.305Z,11.57
2018-04-30T23:30:06.937Z,11.44
2018-04-30T23:33:10.224Z,11.46
2018-04-30T23:36:13.473Z,11.44
2018-04-30T23:39:16.755Z,11.34
2018-04-30T23:42:20.063Z,11.34
2018-04-30T23:45:24.113Z,11.32
2018-04-30T23:48:28.148Z,11.23
2018-04-30T23:51:31.402Z,11.14
2018-04-30T23:54:34.676Z,11.15
2018-04-30T23:57:37.941Z,11.12
